Time;durP1;ratioP1;P1;durP2;ratioP2;P2;SDS_P1;SDS_P2;PMS_P1;PMS_P2;Temp;Humidity;BMP_temperature;BMP_pressure;BME280_temperature;BME280_humidity;BME280_pressure;Samples;Min_cycle;Max_cycle;Signal;HPM_P1;HPM_P2
2023/11/22 00:02:17;;;;;;;20.50;16.90;;;;;;;0.74;100.00;99120.34;109645;1251;63843;-73
2023/11/22 00:04:44;;;;;;;18.20;15.80;;;;;;;0.73;100.00;99122.14;109578;1253;59023;-73
2023/11/22 00:07:11;;;;;;;19.40;16.60;;;;;;;0.71;100.00;99123.24;109656;1251;59063;-73
2023/11/22 00:09:38;;;;;;;20.00;16.10;;;;;;;0.71;100.00;99127.61;109611;1251;67056;-73
2023/11/22 00:12:04;;;;;;;18.60;16.60;;;;;;;0.72;100.00;99134.23;109586;1251;61069;-73
2023/11/22 00:14:31;;;;;;;19.30;16.20;;;;;;;0.72;100.00;99140.70;109611;1251;65026;-74
2023/11/22 00:16:58;;;;;;;19.10;16.40;;;;;;;0.70;100.00;99141.45;109640;1251;58934;-73
2023/11/22 00:19:25;;;;;;;18.40;16.50;;;;;;;0.68;100.00;99147.09;109628;1251;59027;-73
2023/11/22 00:21:51;;;;;;;20.50;16.10;;;;;;;0.67;100.00;99150.27;109615;1250;66122;-73
2023/11/22 00:24:18;;;;;;;21.40;17.50;;;;;;;0.63;100.00;99158.03;109621;1251;60128;-73
2023/11/22 00:26:45;;;;;;;19.00;15.80;;;;;;;0.61;100.00;99163.34;109653;1251;64104;-73
2023/11/22 00:29:12;;;;;;;19.00;16.20;;;;;;;0.60;100.00;99170.35;109653;1251;58894;-74
2023/11/22 00:31:40;;;;;;;20.60;17.80;;;;;;;0.58;100.00;99173.89;109621;1251;58969;-73
2023/11/22 00:34:06;;;;;;;22.60;17.90;;;;;;;0.56;100.00;99173.43;109600;1251;66990;-73
2023/11/22 00:36:34;;;;;;;20.40;17.40;;;;;;;0.55;100.00;99178.70;109641;1250;59719;-73
2023/11/22 00:39:01;;;;;;;21.00;17.80;;;;;;;0.54;100.00;99181.88;109615;1251;65061;-73
2023/11/22 00:41:31;;;;;;;22.30;18.20;;;;;;;0.52;100.00;99182.09;109569;1251;58956;-73
2023/11/22 00:43:58;;;;;;;23.20;18.80;;;;;;;0.52;100.00;99183.65;109667;1251;59045;-73
2023/11/22 00:46:24;;;;;;;18.90;16.60;;;;;;;0.53;100.00;99180.34;109636;1253;65982;-74
2023/11/22 00:48:51;;;;;;;19.50;16.90;;;;;;;0.53;100.00;99174.20;109588;1250;59061;-73
2023/11/22 00:51:19;;;;;;;20.80;17.20;;;;;;;0.53;100.00;99173.34;109701;1251;65077;-73
2023/11/22 00:53:46;;;;;;;19.80;17.10;;;;;;;0.53;100.00;99172.80;109592;1251;58935;-74
2023/11/22 00:56:13;;;;;;;21.70;18.60;;;;;;;0.52;100.00;99177.55;109666;1251;59127;-72
2023/11/22 00:58:39;;;;;;;21.00;18.00;;;;;;;0.52;100.00;99185.95;109373;1251;67158;-74
2023/11/22 01:01:06;;;;;;;20.00;17.30;;;;;;;0.54;100.00;99182.91;109624;1250;59822;-73
2023/11/22 01:03:33;;;;;;;20.80;17.50;;;;;;;0.51;100.00;99187.52;109547;1251;63799;-73
2023/11/22 01:06:00;;;;;;;20.10;16.70;;;;;;;0.47;100.00;99195.48;109571;1251;59002;-73
2023/11/22 01:08:27;;;;;;;20.90;17.90;;;;;;;0.46;100.00;99195.52;109604;1251;59108;-73
2023/11/22 01:10:53;;;;;;;20.60;18.40;;;;;;;0.46;100.00;99202.00;109631;1251;65715;-73
2023/11/22 01:13:22;;;;;;;22.80;17.40;;;;;;;0.45;100.00;99204.09;109667;1251;61134;-73
2023/11/22 01:15:48;;;;;;;20.50;17.60;;;;;;;0.44;100.00;99206.72;109597;1251;64718;-73
2023/11/22 01:18:15;;;;;;;21.60;18.00;;;;;;;0.43;100.00;99207.79;108855;1251;1002564;-74
2023/11/22 01:20:42;;;;;;;23.50;19.30;;;;;;;0.44;100.00;99208.14;109593;1251;58994;-73
2023/11/22 01:23:08;;;;;;;20.10;16.60;;;;;;;0.43;100.00;99210.08;109328;1250;67046;-74
2023/11/22 01:25:35;;;;;;;21.30;17.30;;;;;;;0.43;100.00;99210.79;109619;1250;60194;-73
2023/11/22 01:28:01;;;;;;;21.70;17.10;;;;;;;0.42;100.00;99210.09;109604;1251;64870;-73
2023/11/22 01:30:28;;;;;;;19.60;16.30;;;;;;;0.44;100.00;99209.52;108645;1251;1002171;-74
2023/11/22 01:32:55;;;;;;;20.60;17.20;;;;;;;0.43;100.00;99211.13;109379;1251;59152;-74
2023/11/22 01:35:21;;;;;;;21.50;17.70;;;;;;;0.42;100.00;99209.05;109628;1251;65998;-73
2023/11/22 01:37:49;;;;;;;21.10;18.80;;;;;;;0.43;100.00;99214.28;109609;1251;60851;-73
2023/11/22 01:40:16;;;;;;;22.90;18.80;;;;;;;0.42;100.00;99214.29;109588;1251;64054;-74
2023/11/22 01:42:43;;;;;;;24.80;20.20;;;;;;;0.41;100.00;99217.64;109614;1251;59038;-73
2023/11/22 01:45:09;;;;;;;24.10;20.20;;;;;;;0.39;100.00;99217.85;109633;1251;59083;-74
2023/11/22 01:47:37;;;;;;;26.30;19.40;;;;;;;0.38;100.00;99218.05;109632;1250;65946;-73
2023/11/22 01:50:06;;;;;;;23.10;18.70;;;;;;;0.35;100.00;99221.44;109645;1251;60809;-73
2023/11/22 01:52:33;;;;;;;22.30;19.40;;;;;;;0.33;100.00;99222.90;108066;1251;1002284;-73
2023/11/22 01:55:04;;;;;;;24.30;20.00;;;;;;;0.31;100.00;99226.95;109616;1251;58934;-73
2023/11/22 01:57:34;;;;;;;22.90;18.00;;;;;;;0.28;100.00;99228.59;109610;1251;59035;-73
2023/11/22 02:00:03;;;;;;;22.50;19.10;;;;;;;0.24;100.00;99229.73;109580;1253;65784;-73
2023/11/22 02:02:31;;;;;;;22.80;19.20;;;;;;;0.21;100.00;99229.95;109610;1251;61088;-74
2023/11/22 02:04:57;;;;;;;23.70;19.50;;;;;;;0.19;100.00;99237.34;109609;1251;64776;-72
2023/11/22 02:07:27;;;;;;;24.10;18.60;;;;;;;0.17;100.00;99238.59;109626;1251;59009;-72
2023/11/22 02:09:53;;;;;;;22.00;19.60;;;;;;;0.16;100.00;99239.16;109542;1251;59070;-72
2023/11/22 02:12:20;;;;;;;25.50;20.10;;;;;;;0.15;100.00;99241.45;109644;1251;75251;-72
2023/11/22 02:14:47;;;;;;;22.30;18.40;;;;;;;0.14;100.00;99242.50;109641;1251;59753;-72
2023/11/22 02:17:14;;;;;;;23.50;19.50;;;;;;;0.14;100.00;99244.27;109615;1251;64843;-72
2023/11/22 02:19:41;;;;;;;24.10;19.70;;;;;;;0.12;100.00;99248.67;109613;1250;58940;-72
2023/11/22 02:22:07;;;;;;;27.30;20.40;;;;;;;0.12;100.00;99248.51;109636;1251;58890;-72
2023/11/22 02:24:34;;;;;;;24.00;20.60;;;;;;;0.12;100.00;99250.23;109611;1251;66985;-73
2023/11/22 02:27:00;;;;;;;23.30;19.60;;;;;;;0.14;100.00;99256.13;109640;1251;59776;-73
2023/11/22 02:29:28;;;;;;;23.30;19.40;;;;;;;0.15;100.00;99257.15;109596;1251;65220;-73
2023/11/22 02:31:54;;;;;;;24.00;19.60;;;;;;;0.15;100.00;99255.08;109613;1250;58949;-73
2023/11/22 02:34:21;;;;;;;26.40;19.80;;;;;;;0.14;100.00;99259.46;109587;1251;58865;-74
2023/11/22 02:36:48;;;;;;;26.30;20.00;;;;;;;0.13;100.00;99256.16;109675;1250;67043;-74
2023/11/22 02:39:16;;;;;;;25.50;20.30;;;;;;;0.11;100.00;99261.26;109626;1250;60062;-75
2023/11/22 02:41:42;;;;;;;23.50;20.20;;;;;;;0.11;100.00;99265.81;109573;1250;65012;-73
2023/11/22 02:44:09;;;;;;;25.00;19.20;;;;;;;0.12;100.00;99268.41;109324;1251;59010;-73
2023/11/22 02:46:36;;;;;;;25.00;19.60;;;;;;;0.12;100.00;99273.30;109628;1251;58870;-74
2023/11/22 02:49:04;;;;;;;24.60;19.30;;;;;;;0.12;100.00;99271.55;109604;1251;65982;-72
2023/11/22 02:51:30;;;;;;;25.20;19.30;;;;;;;0.13;100.00;99272.23;109654;1251;61151;-72
2023/11/22 02:53:57;;;;;;;26.20;19.80;;;;;;;0.13;100.00;99275.39;109606;1251;65104;-72
2023/11/22 02:56:24;;;;;;;28.00;20.80;;;;;;;0.11;100.00;99282.05;109575;1251;58862;-72
2023/11/22 02:58:50;;;;;;;26.50;22.00;;;;;;;0.11;100.00;99286.27;109302;1251;59024;-73
2023/11/22 03:01:17;;;;;;;25.90;20.60;;;;;;;0.12;100.00;99289.37;109588;1251;67076;-73
2023/11/22 03:03:44;;;;;;;26.90;21.40;;;;;;;0.13;100.00;99291.45;109629;1250;59857;-73
2023/11/22 03:06:10;;;;;;;27.60;22.20;;;;;;;0.13;100.00;99295.29;109558;1251;65062;-74
2023/11/22 03:08:37;;;;;;;24.50;19.10;;;;;;;0.14;100.00;99297.18;109586;1251;59009;-74
2023/11/22 03:11:04;;;;;;;28.10;20.40;;;;;;;0.14;100.00;99301.23;109627;1251;59096;-74
2023/11/22 03:13:30;;;;;;;25.80;21.40;;;;;;;0.12;100.00;99305.80;109665;1251;66971;-74
2023/11/22 03:15:57;;;;;;;29.00;21.60;;;;;;;0.13;100.00;99315.56;109690;1250;60092;-73
2023/11/22 03:18:24;;;;;;;25.10;21.40;;;;;;;0.13;100.00;99323.59;109598;1251;63874;-72
2023/11/22 03:20:54;;;;;;;28.40;21.40;;;;;;;0.13;100.00;99327.79;109630;1251;58964;-73
2023/11/22 03:23:21;;;;;;;27.60;22.00;;;;;;;0.12;100.00;99326.95;109627;1251;59094;-73
2023/11/22 03:25:48;;;;;;;25.50;21.80;;;;;;;0.11;100.00;99326.44;109665;1250;66975;-73
2023/11/22 03:28:14;;;;;;;28.20;23.20;;;;;;;0.11;100.00;99329.58;108180;1251;1002680;-73
2023/11/22 03:30:41;;;;;;;27.80;22.80;;;;;;;0.12;100.00;99335.30;109378;1251;59123;-73
2023/11/22 03:33:08;;;;;;;31.10;23.60;;;;;;;0.12;100.00;99345.27;109557;1251;58934;-73
2023/11/22 03:35:35;;;;;;;28.50;21.90;;;;;;;0.13;100.00;99352.44;109457;1251;59056;-73
2023/11/22 03:38:02;;;;;;;28.60;22.20;;;;;;;0.10;100.00;99355.98;109616;1251;66778;-73
2023/11/22 03:40:29;;;;;;;27.50;22.00;;;;;;;0.07;100.00;99358.83;109618;1251;61501;-73
2023/11/22 03:42:55;;;;;;;29.40;22.40;;;;;;;0.06;100.00;99361.63;109574;1251;64055;-73
2023/11/22 03:45:22;;;;;;;28.90;23.00;;;;;;;0.06;100.00;99368.97;109635;1251;58963;-73
2023/11/22 03:47:49;;;;;;;33.40;24.30;;;;;;;0.08;100.00;99371.02;109642;1251;59269;-74
2023/11/22 03:50:16;;;;;;;27.60;22.40;;;;;;;0.07;100.00;99377.68;109374;1251;65979;-74
2023/11/22 03:52:42;;;;;;;41.70;23.20;;;;;;;0.05;100.00;99379.48;109603;1251;59977;-74
2023/11/22 03:55:09;;;;;;;28.00;21.80;;;;;;;0.03;100.00;99387.55;109621;1251;65119;-73
2023/11/22 03:57:36;;;;;;;30.70;22.00;;;;;;;0.02;100.00;99389.48;109677;1251;58980;-73
2023/11/22 04:00:06;;;;;;;28.20;21.40;;;;;;;0.01;100.00;99393.35;109583;1251;58913;-73
2023/11/22 04:02:32;;;;;;;31.70;22.40;;;;;;;0.00;100.00;99395.81;109659;1251;66786;-73
2023/11/22 04:04:59;;;;;;;31.70;23.70;;;;;;;-0.01;100.00;99399.66;109374;1250;61092;-73
2023/11/22 04:07:26;;;;;;;29.80;22.10;;;;;;;-0.01;100.00;99398.61;109630;1251;65044;-72
2023/11/22 04:09:52;;;;;;;34.50;24.90;;;;;;;-0.01;100.00;99399.66;109587;1251;58967;-72
2023/11/22 04:12:20;;;;;;;36.60;25.70;;;;;;;-0.02;100.00;99405.09;109612;1255;59036;-73
2023/11/22 04:14:46;;;;;;;35.40;25.50;;;;;;;-0.03;100.00;99416.48;109651;1250;67262;-73
2023/11/22 04:17:13;;;;;;;35.60;26.00;;;;;;;-0.04;100.00;99416.48;109609;1250;60069;-72
2023/11/22 04:19:40;;;;;;;34.90;25.50;;;;;;;-0.03;100.00;99421.35;109592;1251;63990;-73
2023/11/22 04:22:06;;;;;;;37.10;26.20;;;;;;;-0.01;100.00;99425.70;109586;1251;58967;-74
2023/11/22 04:24:33;;;;;;;34.40;24.20;;;;;;;-0.02;100.00;99433.74;109632;1251;59126;-73
2023/11/22 04:27:00;;;;;;;35.50;26.30;;;;;;;-0.07;100.00;99441.70;109576;1251;66167;-73
2023/11/22 04:29:26;;;;;;;37.90;27.90;;;;;;;-0.09;100.00;99447.13;109632;1251;67494;-74
2023/11/22 04:31:53;;;;;;;38.00;26.90;;;;;;;-0.10;100.00;99451.87;109604;1251;65130;-74
2023/11/22 04:34:20;;;;;;;34.10;24.30;;;;;;;-0.12;100.00;99457.31;109605;1251;58931;-75
2023/11/22 04:36:46;;;;;;;33.10;24.90;;;;;;;-0.14;100.00;99461.54;109626;1251;59032;-73
2023/11/22 04:39:13;;;;;;;35.60;26.30;;;;;;;-0.17;100.00;99467.52;109567;1251;66245;-73
2023/11/22 04:41:40;;;;;;;41.20;28.40;;;;;;;-0.17;100.00;99476.95;109574;1251;60198;-74
2023/11/22 04:44:06;;;;;;;37.50;28.00;;;;;;;-0.16;100.00;99487.06;109640;1251;64108;-74
2023/11/22 04:46:33;;;;;;;40.90;27.80;;;;;;;-0.14;100.00;99495.59;109627;1251;59017;-73
2023/11/22 04:49:00;;;;;;;34.00;24.50;;;;;;;-0.15;100.00;99495.61;109622;1254;59894;-74
2023/11/22 04:51:29;;;;;;;31.80;23.80;;;;;;;-0.18;100.00;99495.14;109592;1251;66783;-74
2023/11/22 04:53:56;;;;;;;34.70;24.30;;;;;;;-0.21;100.00;99500.23;109606;1251;60348;-74
2023/11/22 04:56:22;;;;;;;30.70;22.70;;;;;;;-0.23;100.00;99506.73;109264;1251;64959;-74
2023/11/22 04:58:49;;;;;;;32.20;24.10;;;;;;;-0.25;100.00;99511.84;109584;1251;58976;-74
2023/11/22 05:01:16;;;;;;;33.00;25.70;;;;;;;-0.28;100.00;99516.24;109582;1254;59139;-74
2023/11/22 05:03:42;;;;;;;35.40;26.90;;;;;;;-0.29;100.00;99521.48;109560;1251;65976;-74
2023/11/22 05:06:09;;;;;;;30.30;23.50;;;;;;;-0.29;100.00;99531.08;109578;1251;60906;-74
2023/11/22 05:08:36;;;;;;;32.60;23.30;;;;;;;-0.28;100.00;99536.14;109577;1251;62643;-74
2023/11/22 05:11:04;;;;;;;31.70;23.30;;;;;;;-0.28;100.00;99544.52;109586;1254;58978;-74
2023/11/22 05:13:31;;;;;;;29.50;21.20;;;;;;;-0.28;100.00;99549.24;108858;1251;1003016;-73
2023/11/22 05:15:57;;;;;;;32.90;25.00;;;;;;;-0.28;100.00;99549.59;109489;1251;182673;-74
2023/11/22 05:18:25;;;;;;;28.00;21.30;;;;;;;-0.28;100.00;99553.25;109609;1250;60006;-73
2023/11/22 05:20:51;;;;;;;30.30;23.10;;;;;;;-0.29;100.00;99553.44;109600;1251;65067;-74
2023/11/22 05:23:18;;;;;;;29.60;21.80;;;;;;;-0.28;100.00;99556.23;109401;1251;59027;-74
2023/11/22 05:25:45;;;;;;;34.30;24.30;;;;;;;-0.28;100.00;99557.10;109630;1251;58869;-74
2023/11/22 05:28:12;;;;;;;28.90;22.30;;;;;;;-0.29;100.00;99559.73;109631;1251;66993;-74
2023/11/22 05:30:38;;;;;;;30.00;21.30;;;;;;;-0.29;100.00;99561.99;109604;1251;59719;-74
2023/11/22 05:33:05;;;;;;;32.20;25.00;;;;;;;-0.30;100.00;99558.85;109569;1251;65079;-74
2023/11/22 05:35:32;;;;;;;31.20;22.40;;;;;;;-0.29;100.00;99555.02;109612;1251;58929;-74
2023/11/22 05:37:58;;;;;;;32.90;23.60;;;;;;;-0.28;100.00;99557.10;109347;1251;59025;-75
2023/11/22 05:40:25;;;;;;;35.10;24.10;;;;;;;-0.29;100.00;99564.09;109602;1255;66964;-74
2023/11/22 05:42:52;;;;;;;36.40;23.60;;;;;;;-0.30;100.00;99562.17;109612;1251;60824;-74
2023/11/22 05:45:18;;;;;;;32.50;22.90;;;;;;;-0.31;100.00;99564.98;109362;1251;64253;-74
2023/11/22 05:47:45;;;;;;;31.70;22.00;;;;;;;-0.33;100.00;99568.67;109577;1255;59018;-75
2023/11/22 05:50:12;;;;;;;31.30;22.40;;;;;;;-0.34;100.00;99567.48;109636;1251;59044;-74
2023/11/22 05:52:39;;;;;;;34.00;23.00;;;;;;;-0.34;100.00;99567.13;109661;1251;67268;-74
2023/11/22 05:55:08;;;;;;;32.50;23.30;;;;;;;-0.35;100.00;99567.30;109660;1251;60752;-74
2023/11/22 05:57:34;;;;;;;33.30;22.50;;;;;;;-0.34;100.00;99574.63;109605;1251;64018;-74
2023/11/22 06:00:02;;;;;;;36.20;25.10;;;;;;;-0.33;100.00;99577.06;109567;1250;58942;-74
2023/11/22 06:02:29;;;;;;;33.10;23.80;;;;;;;-0.29;100.00;99580.33;109610;1251;58909;-74
2023/11/22 06:04:56;;;;;;;33.70;24.50;;;;;;;-0.27;100.00;99582.38;109630;1251;66989;-74
2023/11/22 06:07:22;;;;;;;28.90;21.40;;;;;;;-0.27;100.00;99582.04;109632;1251;60059;-74
2023/11/22 06:09:49;;;;;;;30.90;22.60;;;;;;;-0.29;100.00;99583.64;109589;1251;65440;-74
2023/11/22 06:12:16;;;;;;;31.20;24.00;;;;;;;-0.30;100.00;99592.02;109573;1251;58940;-73
2023/11/22 06:14:42;;;;;;;29.60;21.40;;;;;;;-0.29;100.00;99603.90;109347;1251;59119;-74
2023/11/22 06:17:09;;;;;;;30.30;22.20;;;;;;;-0.30;100.00;99615.95;109568;1251;65984;-73
2023/11/22 06:19:37;;;;;;;33.70;23.30;;;;;;;-0.30;100.00;99623.64;109563;1251;60326;-73
2023/11/22 06:22:04;;;;;;;32.50;24.30;;;;;;;-0.31;100.00;99627.66;109515;1251;72962;-75
2023/11/22 06:24:33;;;;;;;36.50;24.60;;;;;;;-0.32;100.00;99630.83;109563;1251;58968;-74
2023/11/22 06:27:00;;;;;;;40.80;27.20;;;;;;;-0.35;100.00;99636.45;109344;1251;59030;-74
2023/11/22 06:29:26;;;;;;;36.80;25.80;;;;;;;-0.36;100.00;99635.95;109634;1250;66030;-73
2023/11/22 06:31:53;;;;;;;43.30;27.10;;;;;;;-0.38;100.00;99635.09;109588;1251;61008;-74
2023/11/22 06:34:20;;;;;;;33.40;22.40;;;;;;;-0.39;100.00;99639.13;109635;1251;64740;-74
2023/11/22 06:36:47;;;;;;;34.10;24.40;;;;;;;-0.40;100.00;99642.44;109580;1251;58916;-75
2023/11/22 06:39:14;;;;;;;32.80;22.80;;;;;;;-0.43;100.00;99651.04;109586;1251;59048;-75
2023/11/22 06:41:41;;;;;;;32.40;23.40;;;;;;;-0.46;100.00;99656.13;109653;1251;67214;-75
2023/11/22 06:44:09;;;;;;;28.30;20.90;;;;;;;-0.48;100.00;99652.30;109626;1251;59586;-73
2023/11/22 06:46:36;;;;;;;36.10;23.60;;;;;;;-0.48;100.00;99652.84;109560;1251;72952;-74
2023/11/22 06:49:02;;;;;;;33.00;23.10;;;;;;;-0.47;100.00;99657.19;109563;1251;58948;-75
2023/11/22 06:51:29;;;;;;;34.90;23.00;;;;;;;-0.47;100.00;99656.48;109610;1251;59062;-74
2023/11/22 06:53:56;;;;;;;33.60;24.40;;;;;;;-0.48;100.00;99655.11;109588;1251;65925;-74
2023/11/22 06:56:23;;;;;;;30.30;21.90;;;;;;;-0.51;100.00;99653.21;109619;1251;59023;-74
2023/11/22 06:58:51;;;;;;;31.30;24.00;;;;;;;-0.48;100.00;99657.90;109603;1251;65259;-75
2023/11/22 07:01:17;;;;;;;29.40;20.60;;;;;;;-0.47;100.00;99664.86;109602;1251;59019;-75
2023/11/22 07:03:45;;;;;;;28.20;21.60;;;;;;;-0.47;100.00;99662.95;109633;1251;59407;-73
2023/11/22 07:06:12;;;;;;;29.10;21.10;;;;;;;-0.47;100.00;99667.66;109549;1251;67016;-74
2023/11/22 07:08:39;;;;;;;30.60;22.60;;;;;;;-0.46;100.00;99668.35;109648;1251;60146;-74
2023/11/22 07:11:09;;;;;;;32.70;22.80;;;;;;;-0.49;100.00;99672.39;109545;1251;65018;-73
2023/11/22 07:13:38;;;;;;;33.90;23.80;;;;;;;-0.49;100.00;99684.27;109554;1251;58907;-73
2023/11/22 07:16:06;;;;;;;31.20;23.40;;;;;;;-0.52;100.00;99690.23;109622;1251;59501;-74
2023/11/22 07:18:33;;;;;;;33.30;22.50;;;;;;;-0.55;100.00;99694.45;109444;1251;67035;-74
2023/11/22 07:21:00;;;;;;;36.80;24.20;;;;;;;-0.59;100.00;99694.84;109638;1251;60337;-73
2023/11/22 07:23:28;;;;;;;34.80;23.10;;;;;;;-0.61;100.00;99697.13;109611;1251;65001;-73
2023/11/22 07:25:55;;;;;;;36.10;24.00;;;;;;;-0.61;100.00;99699.23;109634;1251;59021;-73
2023/11/22 07:28:22;;;;;;;34.60;23.30;;;;;;;-0.62;100.00;99696.97;109612;1251;59917;-74
2023/11/22 07:30:49;;;;;;;35.60;24.80;;;;;;;-0.63;100.00;99699.95;109592;1251;67102;-74
2023/11/22 07:33:15;;;;;;;35.10;24.50;;;;;;;-0.62;100.00;99710.77;109605;1251;61040;-74
2023/11/22 07:35:42;;;;;;;35.20;23.80;;;;;;;-0.59;100.00;99714.22;109581;1251;65392;-74
2023/11/22 07:38:11;;;;;;;32.90;23.30;;;;;;;-0.58;100.00;99711.41;109578;1251;58936;-74
2023/11/22 07:40:37;;;;;;;37.60;25.00;;;;;;;-0.58;100.00;99710.02;109648;1251;58891;-74
2023/11/22 07:43:04;;;;;;;34.20;22.60;;;;;;;-0.57;100.00;99708.61;109581;1251;66986;-74
2023/11/22 07:45:34;;;;;;;31.30;22.60;;;;;;;-0.56;100.00;99707.02;109573;1254;67954;-74
2023/11/22 07:48:00;;;;;;;29.40;20.50;;;;;;;-0.54;100.00;99717.48;109587;1252;64018;-74
2023/11/22 07:50:27;;;;;;;32.70;22.30;;;;;;;-0.55;100.00;99729.02;109530;1252;58929;-74
2023/11/22 07:52:54;;;;;;;32.30;22.60;;;;;;;-0.56;100.00;99734.25;109517;1253;59849;-75
2023/11/22 07:55:21;;;;;;;30.10;22.40;;;;;;;-0.56;100.00;99733.04;109556;1252;66201;-74
2023/11/22 07:57:50;;;;;;;27.60;20.40;;;;;;;-0.56;100.00;99729.53;109565;1253;61062;-73
2023/11/22 08:00:19;;;;;;;30.10;20.50;;;;;;;-0.57;100.00;99735.48;109550;1254;65183;-72
2023/11/22 08:02:46;;;;;;;27.90;20.90;;;;;;;-0.57;100.00;99738.11;109548;1253;59074;-73
2023/11/22 08:05:15;;;;;;;27.60;20.50;;;;;;;-0.58;100.00;99737.07;109586;1253;59085;-73
2023/11/22 08:07:44;;;;;;;30.00;20.60;;;;;;;-0.59;100.00;99735.86;109582;1252;66377;-73
2023/11/22 08:10:18;;;;;;;27.10;19.70;;;;;;;-0.62;100.00;99744.09;109591;1253;61345;-72
2023/11/22 08:12:47;;;;;;;26.90;18.80;;;;;;;-0.66;100.00;99748.30;109539;1254;65091;-73
2023/11/22 08:15:15;;;;;;;30.10;21.70;;;;;;;-0.68;100.00;99751.81;109546;1253;59136;-75
2023/11/22 08:17:43;;;;;;;31.10;21.60;;;;;;;-0.68;100.00;99753.04;109580;1252;59039;-73
2023/11/22 08:20:13;;;;;;;30.50;21.60;;;;;;;-0.66;100.00;99750.58;109581;1252;65589;-73
2023/11/22 08:22:39;;;;;;;;;;;;;;;-0.61;100.00;99755.77;109575;1254;60955;-73
2023/11/22 08:25:08;;;;;;;28.60;21.20;;;;;;;-0.57;100.00;99758.01;109571;1252;64320;-75
2023/11/22 08:27:35;;;;;;;29.00;20.50;;;;;;;-0.56;100.00;99758.86;109595;1252;58947;-71
2023/11/22 08:30:04;;;;;;;27.00;19.40;;;;;;;-0.56;100.00;99763.41;109560;1251;60297;-72
2023/11/22 08:32:31;;;;;;;29.30;21.10;;;;;;;-0.58;100.00;99765.70;109634;1251;65992;-73
2023/11/22 08:34:58;;;;;;;31.10;21.60;;;;;;;-0.60;100.00;99776.88;109659;1250;60979;-72
2023/11/22 08:37:25;;;;;;;29.80;21.30;;;;;;;-0.59;100.00;99785.06;109587;1251;65015;-73
2023/11/22 08:39:51;;;;;;;31.30;21.40;;;;;;;-0.58;100.00;99789.59;109635;1251;58951;-72
2023/11/22 08:42:18;;;;;;;30.80;23.10;;;;;;;-0.60;100.00;99795.02;109679;1251;58849;-73
2023/11/22 08:44:45;;;;;;;30.20;22.20;;;;;;;-0.62;100.00;99793.83;109633;1251;65680;-73
2023/11/22 08:47:13;;;;;;;27.70;21.60;;;;;;;-0.61;100.00;99791.20;109644;1250;60105;-73
2023/11/22 08:49:41;;;;;;;28.60;20.60;;;;;;;-0.57;100.00;99790.46;109410;1251;64823;-74
2023/11/22 08:52:08;;;;;;;34.10;22.80;;;;;;;-0.52;100.00;99788.34;109573;1251;58998;-73
2023/11/22 08:54:35;;;;;;;33.20;21.90;;;;;;;-0.48;100.00;99793.35;109636;1251;59082;-74
2023/11/22 08:57:01;;;;;;;30.80;22.20;;;;;;;-0.46;100.00;99790.17;109578;1251;64765;-72
2023/11/22 08:59:29;;;;;;;29.80;21.50;;;;;;;-0.44;100.00;99789.64;109626;1251;60213;-73
2023/11/22 09:01:55;;;;;;;27.60;21.90;;;;;;;-0.41;100.00;99787.70;109589;1251;65023;-73
2023/11/22 09:04:24;;;;;;;30.90;22.30;;;;;;;-0.42;100.00;99783.16;109297;1251;59038;-73
2023/11/22 09:06:50;;;;;;;26.70;20.90;;;;;;;-0.44;100.00;99784.23;109636;1251;59342;-72
2023/11/22 09:09:17;;;;;;;27.50;22.00;;;;;;;-0.43;100.00;99789.11;109591;1251;66976;-73
2023/11/22 09:11:44;;;;;;;27.80;20.50;;;;;;;-0.44;100.00;99796.30;109341;1251;59880;-72
2023/11/22 09:14:10;;;;;;;30.40;21.70;;;;;;;-0.43;100.00;99803.60;109587;1251;65216;-73
2023/11/22 09:16:38;;;;;;;29.10;21.20;;;;;;;-0.40;100.00;99797.64;109633;1251;58980;-72
2023/11/22 09:19:08;;;;;;;28.40;21.30;;;;;;;-0.37;100.00;99803.90;109619;1251;58956;-73
2023/11/22 09:21:35;;;;;;;27.20;20.40;;;;;;;-0.34;100.00;99810.51;109609;1251;66111;-73
2023/11/22 09:24:02;;;;;;;29.50;22.70;;;;;;;-0.33;100.00;99814.67;109705;1251;61248;-72
2023/11/22 09:26:29;;;;;;;28.60;21.10;;;;;;;-0.33;100.00;99813.28;109573;1251;65282;-72
2023/11/22 09:28:56;;;;;;;28.40;20.40;;;;;;;-0.33;100.00;99811.88;109595;1251;58954;-73
2023/11/22 09:31:23;;;;;;;26.00;20.10;;;;;;;-0.30;100.00;99812.02;109609;1251;58966;-73
2023/11/22 09:33:50;;;;;;;26.80;21.30;;;;;;;-0.27;100.00;99817.23;109690;1251;65976;-73
2023/11/22 09:36:17;;;;;;;28.50;22.20;;;;;;;-0.26;100.00;99823.16;109615;1251;60082;-72
2023/11/22 09:38:44;;;;;;;26.90;19.30;;;;;;;-0.23;100.00;99829.43;109617;1251;63839;-72
2023/11/22 09:41:11;;;;;;;25.90;19.40;;;;;;;-0.22;100.00;99830.29;109643;1251;58958;-72
2023/11/22 09:43:39;;;;;;;24.40;18.30;;;;;;;-0.22;100.00;99828.54;109334;1251;59010;-72
2023/11/22 09:46:11;;;;;;;27.80;19.40;;;;;;;-0.22;100.00;99824.19;109316;1251;67105;-73
2023/11/22 09:48:39;;;;;;;25.40;20.20;;;;;;;-0.24;100.00;99828.73;109484;1251;60188;-73
2023/11/22 09:51:23;;;;;;;25.80;19.20;;;;;;;-0.23;100.00;99830.81;109618;1251;64116;-73
2023/11/22 09:53:54;;;;;;;25.50;19.10;;;;;;;-0.21;100.00;99830.81;109588;1251;59064;-73
2023/11/22 09:56:20;;;;;;;29.20;19.90;;;;;;;-0.18;100.00;99832.19;109654;1251;58981;-73
2023/11/22 09:58:51;;;;;;;26.20;18.60;;;;;;;-0.16;100.00;99839.13;109631;1251;64944;-72
2023/11/22 10:01:18;;;;;;;22.50;18.60;;;;;;;-0.16;100.00;99841.40;109597;1251;61244;-73
2023/11/22 10:03:45;;;;;;;26.00;19.80;;;;;;;-0.16;100.00;99847.52;109628;1251;64224;-73
2023/11/22 10:06:11;;;;;;;22.10;17.30;;;;;;;-0.14;100.00;99853.27;109602;1251;59024;-73
2023/11/22 10:08:38;;;;;;;23.40;19.20;;;;;;;-0.14;100.00;99853.95;109576;1251;58844;-73
2023/11/22 10:11:05;;;;;;;22.70;18.30;;;;;;;-0.13;100.00;99855.16;109677;1251;65894;-72
2023/11/22 10:13:32;;;;;;;24.80;18.50;;;;;;;-0.10;100.00;99864.23;109415;1250;60234;-72
2023/11/22 10:16:15;;;;;;;23.60;18.50;;;;;;;-0.07;100.00;99875.73;109447;1251;65323;-73
2023/11/22 10:18:43;;;;;;;22.90;18.70;;;;;;;-0.05;100.00;99877.46;109661;1251;58961;-72
2023/11/22 10:21:23;;;;;;;25.20;20.10;;;;;;;-0.03;100.00;99870.27;109657;1251;58962;-72
2023/11/22 10:23:56;;;;;;;26.90;20.30;;;;;;;0.01;100.00;99875.30;109674;1251;66060;-73
2023/11/22 10:26:24;;;;;;;22.30;18.50;;;;;;;0.06;100.00;99873.69;109643;1250;61137;-73
2023/11/22 10:28:52;;;;;;;24.80;19.50;;;;;;;0.12;100.00;99870.83;109694;1251;64227;-72
2023/11/22 10:31:21;;;;;;;22.30;18.20;;;;;;;0.17;100.00;99870.06;108847;1251;1002208;-72
2023/11/22 10:33:48;;;;;;;21.20;18.00;;;;;;;0.20;100.00;99866.88;109644;1251;58969;-72
2023/11/22 10:36:16;;;;;;;22.70;18.30;;;;;;;0.21;100.00;99863.20;109614;1251;66086;-74
2023/11/22 10:38:46;;;;;;;22.40;18.20;;;;;;;0.24;100.00;99861.42;109650;1251;61050;-73
2023/11/22 10:41:13;;;;;;;;;;;;;;;0.28;100.00;99855.44;109433;1251;65132;-73
2023/11/22 10:43:42;;;;;;;20.80;18.20;;;;;;;0.31;100.00;99849.12;109268;1251;59088;-73
2023/11/22 10:46:12;;;;;;;21.80;17.40;;;;;;;0.34;100.00;99849.09;109630;1251;58933;-72
2023/11/22 10:48:39;;;;;;;22.70;17.90;;;;;;;0.35;100.00;99844.70;109642;1251;67027;-73
2023/11/22 10:51:06;;;;;;;22.70;17.40;;;;;;;0.36;100.00;99846.61;109660;1251;59699;-73
2023/11/22 10:53:40;;;;;;;22.30;16.80;;;;;;;0.36;100.00;99851.15;109593;1250;64159;-73
2023/11/22 10:56:19;;;;;;;19.70;16.10;;;;;;;0.37;100.00;99850.61;109557;1251;58976;-73
2023/11/22 10:58:47;;;;;;;21.80;17.30;;;;;;;0.37;100.00;99852.02;109302;1251;59051;-72
2023/11/22 11:01:19;;;;;;;18.80;15.90;;;;;;;0.38;100.00;99849.91;109546;1251;67036;-73
2023/11/22 11:03:57;;;;;;;20.10;15.90;;;;;;;0.37;100.00;99853.94;109648;1251;61059;-72
2023/11/22 11:06:33;;;;;;;18.80;15.70;;;;;;;0.38;100.00;99861.61;109615;1251;64426;-72